createdAt,value
2023-04-22T00:00:39.723Z,17.02
2023-04-22T00:03:08.567Z,18.30
2023-04-22T00:05:35.764Z,11.82
2023-04-22T00:08:02.431Z,11.38
2023-04-22T00:10:29.087Z,14.30
2023-04-22T00:12:55.776Z,12.80
2023-04-22T00:15:22.754Z,14.63
2023-04-22T00:17:49.496Z,18.75
2023-04-22T00:20:16.414Z,16.23
2023-04-22T00:22:43.045Z,23.20
2023-04-22T00:25:09.846Z,10.65
2023-04-22T00:27:36.458Z,8.90
2023-04-22T00:30:03.355Z,9.73
2023-04-22T00:32:30.158Z,15.80
2023-04-22T00:34:57.631Z,12.65
2023-04-22T00:37:25.023Z,14.75
2023-04-22T00:39:51.751Z,9.80
2023-04-22T00:42:18.820Z,10.27
2023-04-22T00:44:48.076Z,9.13
2023-04-22T00:47:15.217Z,9.35
2023-04-22T00:49:44.244Z,13.77
2023-04-22T00:52:11.025Z,13.07
2023-04-22T00:54:37.763Z,8.80
2023-04-22T00:57:05.876Z,11.68
2023-04-22T00:59:32.701Z,5.47
2023-04-22T01:02:00.571Z,8.60
2023-04-22T01:04:27.991Z,10.02
2023-04-22T01:06:54.627Z,7.90
2023-04-22T01:09:21.400Z,12.98
2023-04-22T01:11:48.130Z,9.88
2023-04-22T01:14:15.436Z,8.75
2023-04-22T01:16:43.860Z,8.80
2023-04-22T01:19:11.443Z,7.15
2023-04-22T01:21:40.675Z,7.97
2023-04-22T01:24:08.359Z,10.55
2023-04-22T01:26:36.043Z,7.78
2023-04-22T01:29:04.236Z,13.95
2023-04-22T01:31:31.325Z,13.15
2023-04-22T01:33:59.098Z,6.20
2023-04-22T01:36:25.982Z,9.20
2023-04-22T01:38:53.572Z,8.90
2023-04-22T01:41:21.151Z,7.10
2023-04-22T01:43:48.199Z,5.93
2023-04-22T01:46:17.260Z,9.32
2023-04-22T01:48:50.395Z,10.57
2023-04-22T01:51:18.308Z,5.75
2023-04-22T01:53:45.026Z,11.27
2023-04-22T01:56:11.643Z,6.82
2023-04-22T01:58:39.600Z,8.63
2023-04-22T02:01:07.207Z,7.05
2023-04-22T02:03:33.963Z,7.72
2023-04-22T02:06:00.738Z,5.70
2023-04-22T02:08:27.415Z,6.70
2023-04-22T02:10:54.166Z,6.72
2023-04-22T02:13:20.940Z,8.38
2023-04-22T02:15:48.438Z,11.98
2023-04-22T02:18:18.114Z,6.10
2023-04-22T02:20:44.879Z,7.75
2023-04-22T02:23:11.865Z,10.15
2023-04-22T02:25:38.808Z,7.50
2023-04-22T02:28:05.474Z,6.75
2023-04-22T02:30:32.130Z,6.35
2023-04-22T02:32:58.785Z,5.55
2023-04-22T02:35:26.481Z,5.65
2023-04-22T02:37:53.199Z,6.55
2023-04-22T02:40:22.128Z,8.48
2023-04-22T02:42:48.739Z,6.00
2023-04-22T02:45:15.449Z,9.35
2023-04-22T02:47:43.802Z,12.02
2023-04-22T02:50:12.007Z,10.55
2023-04-22T02:52:38.647Z,7.30
2023-04-22T02:55:06.473Z,5.13
2023-04-22T02:57:33.219Z,6.75
2023-04-22T03:00:00.042Z,9.57
2023-04-22T03:02:27.238Z,6.35
2023-04-22T03:05:05.473Z,13.90
2023-04-22T03:07:32.176Z,10.50
2023-04-22T03:09:59.603Z,6.15
2023-04-22T03:12:26.322Z,6.85
2023-04-22T03:14:56.053Z,5.63
2023-04-22T03:17:26.118Z,6.30
2023-04-22T03:19:52.991Z,5.50
2023-04-22T03:22:21.186Z,6.57
2023-04-22T03:24:48.808Z,9.60
2023-04-22T03:27:16.108Z,6.70
2023-04-22T03:29:43.016Z,8.38
2023-04-22T03:32:11.028Z,7.72
2023-04-22T03:34:38.103Z,5.60
2023-04-22T03:37:07.517Z,8.75
2023-04-22T03:39:34.274Z,7.70
2023-04-22T03:42:01.653Z,5.85
2023-04-22T03:44:29.114Z,8.45
2023-04-22T03:46:55.795Z,8.88
2023-04-22T03:49:27.750Z,9.75
2023-04-22T03:51:56.073Z,7.53
2023-04-22T03:54:25.561Z,6.95
2023-04-22T03:56:52.815Z,6.28
2023-04-22T03:59:21.450Z,6.25
2023-04-22T04:01:51.466Z,6.20
2023-04-22T04:04:20.855Z,7.38
2023-04-22T04:06:52.547Z,11.27
2023-04-22T04:09:19.925Z,11.48
2023-04-22T04:11:46.815Z,6.25
2023-04-22T04:14:14.417Z,6.47
2023-04-22T04:16:48.643Z,14.75
2023-04-22T04:19:24.105Z,7.78
2023-04-22T04:21:51.542Z,5.82
2023-04-22T04:24:19.220Z,7.18
2023-04-22T04:26:50.132Z,5.88
2023-04-22T04:29:26.999Z,5.07
2023-04-22T04:32:18.360Z,6.70
2023-04-22T04:34:45.500Z,6.15
2023-04-22T04:37:14.269Z,5.45
2023-04-22T04:39:53.940Z,6.72
2023-04-22T04:42:24.513Z,6.10
2023-04-22T04:44:58.490Z,8.65
2023-04-22T04:47:26.440Z,6.25
2023-04-22T04:50:01.282Z,5.82
2023-04-22T04:52:28.411Z,5.75
2023-04-22T04:54:55.067Z,7.05
2023-04-22T04:57:21.735Z,5.68
2023-04-22T04:59:49.094Z,5.90
2023-04-22T05:02:16.242Z,6.68
2023-04-22T05:04:43.042Z,5.47
2023-04-22T05:07:09.974Z,10.68
2023-04-22T05:09:39.193Z,6.72
2023-04-22T05:12:07.079Z,7.47
2023-04-22T05:14:35.011Z,6.03
2023-04-22T05:17:02.521Z,6.95
2023-04-22T05:19:29.754Z,6.07
2023-04-22T05:21:57.028Z,11.73
2023-04-22T05:24:24.073Z,7.30
2023-04-22T05:26:51.367Z,8.50
2023-04-22T05:29:19.504Z,6.03
2023-04-22T05:31:46.485Z,7.25
2023-04-22T05:34:13.280Z,8.23
2023-04-22T05:36:40.502Z,6.57
2023-04-22T05:39:07.608Z,5.90
2023-04-22T05:41:35.690Z,9.38
2023-04-22T05:44:04.972Z,6.88
2023-04-22T05:46:31.867Z,6.50
2023-04-22T05:48:59.156Z,6.53
2023-04-22T05:51:46.138Z,6.63
2023-04-22T05:54:17.468Z,5.97
2023-04-22T05:56:44.816Z,6.40
2023-04-22T05:59:11.643Z,6.38
2023-04-22T06:01:38.308Z,7.22
2023-04-22T06:04:10.066Z,6.78
2023-04-22T06:06:37.561Z,11.32
2023-04-22T06:09:05.899Z,7.18
2023-04-22T06:11:33.058Z,7.20
2023-04-22T06:13:59.964Z,9.85
2023-04-22T06:16:27.354Z,6.57
2023-04-22T06:18:54.236Z,7.20
2023-04-22T06:21:22.986Z,9.57
2023-04-22T06:23:52.842Z,6.03
2023-04-22T06:26:21.186Z,6.53
2023-04-22T06:28:48.123Z,8.60
2023-04-22T06:31:20.518Z,12.75
2023-04-22T06:33:48.693Z,7.53
2023-04-22T06:36:18.620Z,7.70
2023-04-22T06:38:54.932Z,8.73
2023-04-22T06:41:34.515Z,7.05
2023-04-22T06:44:08.426Z,7.00
2023-04-22T06:46:44.111Z,7.05
2023-04-22T06:49:33.636Z,18.90
2023-04-22T06:52:12.471Z,6.43
2023-04-22T06:54:39.302Z,7.43
2023-04-22T06:57:07.990Z,8.52
2023-04-22T06:59:34.817Z,6.22
2023-04-22T07:02:01.644Z,7.53
2023-04-22T07:04:34.550Z,7.55
2023-04-22T07:07:03.646Z,8.63
2023-04-22T07:09:41.183Z,11.93
2023-04-22T07:12:46.212Z,6.40
2023-04-22T07:15:40.400Z,10.38
2023-04-22T07:18:12.845Z,8.90
2023-04-22T07:20:55.503Z,7.55
2023-04-22T07:23:25.320Z,9.20
2023-04-22T07:32:21.583Z,11.02
2023-04-22T07:34:53.112Z,8.48
2023-04-22T07:37:22.104Z,9.52
2023-04-22T07:39:57.935Z,6.43
2023-04-22T07:43:04.886Z,7.05
2023-04-22T07:45:56.674Z,9.60
2023-04-22T07:48:39.736Z,10.63
2023-04-22T07:51:15.648Z,6.18
2023-04-22T07:54:11.527Z,6.68
2023-04-22T07:57:03.177Z,8.48
2023-04-22T07:59:30.107Z,9.10
2023-04-22T08:02:07.498Z,6.82
2023-04-22T08:04:37.377Z,6.53
2023-04-22T08:07:30.470Z,6.72
2023-04-22T08:09:58.157Z,7.20
2023-04-22T08:12:32.531Z,7.72
2023-04-22T08:15:12.289Z,8.68
2023-04-22T08:17:41.818Z,16.70
2023-04-22T08:20:16.317Z,6.38
2023-04-22T08:22:53.505Z,6.85
2023-04-22T08:25:40.448Z,7.00
2023-04-22T08:28:24.679Z,6.05
2023-04-22T08:30:56.998Z,6.00
2023-04-22T08:33:33.365Z,5.30
2023-04-22T08:36:08.764Z,8.50
2023-04-22T08:38:44.589Z,5.80
2023-04-22T08:41:12.786Z,12.52
2023-04-22T08:43:39.721Z,6.07
2023-04-22T08:46:09.744Z,6.18
2023-04-22T08:48:42.336Z,9.95
2023-04-22T08:51:17.983Z,5.60
2023-04-22T08:53:55.000Z,8.30
2023-04-22T08:56:26.873Z,5.68
2023-04-22T08:59:07.962Z,5.35
2023-04-22T09:01:38.552Z,6.05
2023-04-22T09:04:10.648Z,5.72
2023-04-22T09:06:42.449Z,5.18
2023-04-22T09:10:09.022Z,5.57
2023-04-22T09:12:39.543Z,5.45
2023-04-22T09:15:10.215Z,7.78
2023-04-22T09:17:41.406Z,6.93
2023-04-22T09:20:09.839Z,6.95
2023-04-22T09:22:45.281Z,5.38
2023-04-22T09:25:26.528Z,8.63
2023-04-22T09:27:58.555Z,5.20
2023-04-22T09:30:28.796Z,10.80
2023-04-22T09:33:00.041Z,10.45
2023-04-22T09:35:40.957Z,4.82
2023-04-22T09:38:09.858Z,5.40
2023-04-22T09:40:45.394Z,6.43
2023-04-22T09:43:14.709Z,7.50
2023-04-22T09:45:43.549Z,8.55
2023-04-22T09:48:15.940Z,6.20
2023-04-22T09:50:47.427Z,9.93
2023-04-22T09:53:21.988Z,5.68
2023-04-22T09:55:51.596Z,9.70
2023-04-22T09:58:20.781Z,10.93
2023-04-22T10:00:51.029Z,7.20
2023-04-22T10:03:19.225Z,5.07
2023-04-22T10:05:52.439Z,6.25
2023-04-22T10:08:19.361Z,6.55
2023-04-22T10:10:46.285Z,6.70
2023-04-22T10:13:15.927Z,6.03
2023-04-22T10:15:51.809Z,9.23
2023-04-22T10:18:28.545Z,8.55
2023-04-22T10:20:57.456Z,7.13
2023-04-22T10:23:25.289Z,6.20
2023-04-22T10:25:56.386Z,6.57
2023-04-22T10:28:27.676Z,5.03
2023-04-22T10:30:54.630Z,10.38
2023-04-22T10:33:21.390Z,7.30
2023-04-22T10:36:10.575Z,4.55
2023-04-22T10:39:01.500Z,4.00
2023-04-22T10:41:35.907Z,5.28
2023-04-22T10:44:07.430Z,5.07
2023-04-22T10:46:37.898Z,6.05
2023-04-22T10:49:10.027Z,4.50
2023-04-22T10:51:40.739Z,6.15
2023-04-22T10:54:08.176Z,9.98
2023-04-22T10:56:35.381Z,5.57
2023-04-22T10:59:16.441Z,3.70
2023-04-22T11:01:44.737Z,3.70
2023-04-22T11:04:20.910Z,3.35
2023-04-22T11:07:30.130Z,3.40
2023-04-22T11:10:07.761Z,8.75
2023-04-22T11:12:42.706Z,6.47
2023-04-22T11:15:18.068Z,5.72
2023-04-22T11:17:47.900Z,6.55
2023-04-22T11:20:18.674Z,9.55
2023-04-22T11:22:53.227Z,6.22
2023-04-22T11:25:20.628Z,4.78
2023-04-22T11:27:48.005Z,8.10
2023-04-22T11:30:26.274Z,6.45
2023-04-22T11:32:55.526Z,6.57
2023-04-22T11:35:25.011Z,7.32
2023-04-22T11:37:55.893Z,4.40
2023-04-22T11:40:37.105Z,6.60
2023-04-22T11:43:07.989Z,7.25
2023-04-22T11:45:37.375Z,6.53
2023-04-22T11:48:06.161Z,3.63
2023-04-22T11:50:36.292Z,5.00
2023-04-22T11:53:04.937Z,4.70
2023-04-22T11:55:34.088Z,4.43
2023-04-22T11:58:07.188Z,4.53
2023-04-22T12:00:37.132Z,4.63
2023-04-22T12:03:08.841Z,5.70
2023-04-22T12:05:40.517Z,4.82
2023-04-22T12:08:10.214Z,4.10
2023-04-22T12:10:42.382Z,5.80
2023-04-22T12:13:09.409Z,3.70
2023-04-22T12:15:40.482Z,4.05
2023-04-22T12:18:07.553Z,3.78
2023-04-22T12:20:35.789Z,3.78
2023-04-22T12:23:03.812Z,3.10
2023-04-22T12:25:33.901Z,2.95
2023-04-22T12:28:01.290Z,3.10
2023-04-22T12:30:28.124Z,3.47
2023-04-22T12:32:54.889Z,3.15
2023-04-22T12:35:21.929Z,5.00
2023-04-22T12:37:50.456Z,3.03
2023-04-22T12:40:18.737Z,2.70
2023-04-22T12:42:45.399Z,3.70
2023-04-22T12:45:12.216Z,2.60
2023-04-22T12:47:39.087Z,3.92
2023-04-22T12:50:06.649Z,2.28
2023-04-22T12:52:34.949Z,3.92
2023-04-22T12:55:01.995Z,4.07
2023-04-22T12:57:28.889Z,5.38
2023-04-22T12:59:55.860Z,3.42
2023-04-22T13:02:22.794Z,2.53
2023-04-22T13:04:52.670Z,10.38
2023-04-22T13:07:19.839Z,2.40
2023-04-22T13:09:46.711Z,1.75
2023-04-22T13:12:13.465Z,2.17
2023-04-22T13:14:40.330Z,4.32
2023-04-22T13:17:07.146Z,12.55
2023-04-22T13:19:35.491Z,3.72
2023-04-22T13:22:02.741Z,4.00
2023-04-22T13:24:34.468Z,3.60
2023-04-22T13:27:06.370Z,9.02
2023-04-22T13:29:33.890Z,3.38
2023-04-22T13:32:04.737Z,7.78
2023-04-22T13:34:31.653Z,3.05
2023-04-22T13:37:00.848Z,2.25
2023-04-22T13:39:30.092Z,2.53
2023-04-22T13:42:03.002Z,3.15
2023-04-22T13:44:30.355Z,2.25
2023-04-22T13:46:59.436Z,2.15
2023-04-22T13:49:30.113Z,2.35
2023-04-22T13:51:57.234Z,1.95
2023-04-22T13:54:31.773Z,3.75
2023-04-22T13:57:03.944Z,1.75
2023-04-22T13:59:36.847Z,1.73
2023-04-22T14:02:03.885Z,3.08
2023-04-22T14:04:30.794Z,2.35
2023-04-22T14:06:57.785Z,1.40
2023-04-22T14:09:24.830Z,1.85
2023-04-22T14:11:51.691Z,2.13
2023-04-22T14:14:19.065Z,1.63
2023-04-22T14:16:45.903Z,1.45
2023-04-22T14:19:15.671Z,1.73
2023-04-22T14:21:42.534Z,2.70
2023-04-22T14:24:10.457Z,1.92
2023-04-22T14:26:37.350Z,1.20
2023-04-22T14:29:04.164Z,2.75
2023-04-22T14:31:31.217Z,3.65
2023-04-22T14:33:58.086Z,1.42
2023-04-22T14:36:24.902Z,1.35
2023-04-22T14:38:51.649Z,1.02
2023-04-22T14:41:18.440Z,1.60
2023-04-22T14:43:45.181Z,1.15
2023-04-22T14:46:11.922Z,1.08
2023-04-22T14:48:39.450Z,2.92
2023-04-22T14:51:07.793Z,2.40
2023-04-22T14:53:37.920Z,0.80
2023-04-22T14:56:10.629Z,1.58
2023-04-22T14:58:39.065Z,1.05
2023-04-22T15:01:08.977Z,1.45
2023-04-22T15:04:09.363Z,0.90
2023-04-22T15:06:41.267Z,2.97
2023-04-22T15:09:11.226Z,0.77
2023-04-22T15:11:54.356Z,1.50
2023-04-22T15:17:21.312Z,1.13
2023-04-22T15:19:48.570Z,1.58
2023-04-22T15:22:17.638Z,1.20
2023-04-22T15:24:45.762Z,2.75
2023-04-22T15:27:12.853Z,2.50
2023-04-22T15:29:40.056Z,1.65
2023-04-22T15:32:13.902Z,1.02
2023-04-22T15:34:42.943Z,1.40
2023-04-22T15:37:47.586Z,0.90
2023-04-22T15:40:16.792Z,1.20
2023-04-22T15:42:43.593Z,2.03
2023-04-22T15:45:10.838Z,1.75
2023-04-22T15:47:37.846Z,5.07
2023-04-22T15:50:09.288Z,3.88
2023-04-22T15:52:37.980Z,1.35
2023-04-22T15:55:08.330Z,1.17
2023-04-22T15:57:35.637Z,2.97
2023-04-22T16:00:12.474Z,2.28
2023-04-22T16:02:44.494Z,2.55
2023-04-22T16:05:12.247Z,2.60
2023-04-22T16:07:39.384Z,1.45
2023-04-22T16:10:06.937Z,1.63
2023-04-22T16:12:34.568Z,1.45
2023-04-22T16:15:13.174Z,1.23
2023-04-22T16:17:44.347Z,2.80
2023-04-22T16:20:11.605Z,4.22
2023-04-22T16:22:38.398Z,1.00
2023-04-22T16:25:13.059Z,1.92
2023-04-22T16:27:39.980Z,1.23
2023-04-22T16:30:14.325Z,1.42
2023-04-22T16:32:47.771Z,2.75
2023-04-22T16:35:14.947Z,3.20
2023-04-22T16:37:54.106Z,1.63
2023-04-22T16:40:25.167Z,1.52
2023-04-22T16:42:53.870Z,2.10
2023-04-22T16:45:20.842Z,4.45
2023-04-22T16:47:47.760Z,2.08
2023-04-22T16:53:11.880Z,1.75
2023-04-22T16:55:52.859Z,2.10
2023-04-22T16:58:27.016Z,2.13
2023-04-22T17:00:53.967Z,2.42
2023-04-22T17:03:23.421Z,3.28
2023-04-22T17:05:51.160Z,5.32
2023-04-22T17:08:26.803Z,4.07
2023-04-22T17:10:57.446Z,2.42
2023-04-22T17:14:02.401Z,2.28
2023-04-22T17:16:29.602Z,2.13
2023-04-22T17:18:56.536Z,1.73
2023-04-22T17:21:26.233Z,4.60
2023-04-22T17:23:55.451Z,2.60
2023-04-22T17:26:23.517Z,1.70
2023-04-22T17:28:52.790Z,2.28
2023-04-22T17:31:19.851Z,1.70
2023-04-22T17:33:47.710Z,2.22
2023-04-22T17:36:22.283Z,1.65
2023-04-22T17:38:49.038Z,3.03
2023-04-22T17:41:18.721Z,4.63
2023-04-22T17:43:48.590Z,2.80
2023-04-22T17:46:17.974Z,2.60
2023-04-22T17:48:48.304Z,2.38
2023-04-22T17:51:21.107Z,3.85
2023-04-22T17:53:49.040Z,2.67
2023-04-22T17:56:16.227Z,7.85
2023-04-22T17:58:48.569Z,3.92
2023-04-22T18:01:15.946Z,4.57
2023-04-22T18:03:51.235Z,2.78
2023-04-22T18:06:20.112Z,3.40
2023-04-22T18:08:47.027Z,7.50
2023-04-22T18:11:14.118Z,4.03
2023-04-22T18:13:46.339Z,2.60
2023-04-22T18:16:17.963Z,8.85
2023-04-22T18:18:47.268Z,4.25
2023-04-22T18:21:14.187Z,3.92
2023-04-22T18:23:41.094Z,5.20
2023-04-22T18:26:11.287Z,3.75
2023-04-22T18:28:40.211Z,2.58
2023-04-22T18:31:07.957Z,3.30
2023-04-22T18:33:38.336Z,2.30
2023-04-22T18:36:05.545Z,3.10
2023-04-22T18:38:32.384Z,4.78
2023-04-22T18:41:01.393Z,4.05
2023-04-22T18:43:29.418Z,3.17
2023-04-22T18:45:56.520Z,4.57
2023-04-22T18:48:23.385Z,2.70
2023-04-22T18:50:50.630Z,2.92
2023-04-22T18:53:17.583Z,3.83
2023-04-22T18:55:44.549Z,2.80
2023-04-22T18:58:11.493Z,2.70
2023-04-22T19:00:41.693Z,6.65
2023-04-22T19:03:08.840Z,6.35
2023-04-22T19:05:35.877Z,8.50
2023-04-22T19:08:02.662Z,6.05
2023-04-22T19:10:29.630Z,4.45
2023-04-22T19:12:56.616Z,4.97
2023-04-22T19:15:23.592Z,12.30
2023-04-22T19:17:50.341Z,4.30
2023-04-22T19:20:17.344Z,9.35
2023-04-22T19:22:47.055Z,5.32
2023-04-22T19:25:15.080Z,5.15
2023-04-22T19:27:44.332Z,5.03
2023-04-22T19:30:11.818Z,3.50
2023-04-22T19:32:38.904Z,4.20
2023-04-22T19:35:07.937Z,5.43
2023-04-22T19:37:34.751Z,7.45
2023-04-22T19:40:04.561Z,4.00
2023-04-22T19:42:32.133Z,3.35
2023-04-22T19:44:59.613Z,3.45
2023-04-22T19:47:29.466Z,6.40
2023-04-22T19:49:58.876Z,5.72
2023-04-22T19:52:27.855Z,4.82
2023-04-22T19:55:01.010Z,8.65
2023-04-22T19:57:27.897Z,5.57
2023-04-22T19:59:55.929Z,8.05
2023-04-22T20:02:23.903Z,4.57
2023-04-22T20:04:51.093Z,11.00
2023-04-22T20:07:19.068Z,6.10
2023-04-22T20:10:00.565Z,4.25
2023-04-22T20:12:30.919Z,7.25
2023-04-22T20:14:58.578Z,14.32
2023-04-22T20:17:28.784Z,8.15
2023-04-22T20:19:58.780Z,5.57
2023-04-22T20:22:26.367Z,6.00
2023-04-22T20:25:04.926Z,4.18
2023-04-22T20:27:32.933Z,7.00
2023-04-22T20:30:01.329Z,9.65
2023-04-22T20:32:29.176Z,9.98
2023-04-22T20:34:56.668Z,8.68
2023-04-22T20:37:37.516Z,6.72
2023-04-22T20:40:11.094Z,5.13
2023-04-22T20:42:37.954Z,5.50
2023-04-22T20:45:05.708Z,9.35
2023-04-22T20:47:36.268Z,4.45
2023-04-22T20:50:04.257Z,12.20
2023-04-22T20:52:31.464Z,8.15
2023-04-22T20:54:58.783Z,5.15
2023-04-22T20:57:25.753Z,4.50
2023-04-22T20:59:52.613Z,4.50
2023-04-22T21:02:25.389Z,4.70
2023-04-22T21:04:53.259Z,5.00
2023-04-22T21:07:21.424Z,4.22
2023-04-22T21:09:48.314Z,4.95
2023-04-22T21:12:17.416Z,3.40
2023-04-22T21:14:47.103Z,4.00
2023-04-22T21:17:29.767Z,4.20
2023-04-22T21:19:57.747Z,5.28
2023-04-22T21:22:25.197Z,4.88
2023-04-22T21:24:55.131Z,5.60
2023-04-22T21:27:22.508Z,3.83
2023-04-22T21:29:50.160Z,7.47
2023-04-22T21:32:20.116Z,12.30
2023-04-22T21:34:47.216Z,6.40
2023-04-22T21:37:14.310Z,11.25
2023-04-22T21:39:41.135Z,7.10
2023-04-22T21:42:08.762Z,6.85
2023-04-22T21:44:37.131Z,4.57
2023-04-22T21:47:04.988Z,9.55
2023-04-22T21:50:13.902Z,3.28
2023-04-22T21:52:40.782Z,2.75
2023-04-22T21:55:07.900Z,3.15
2023-04-22T21:57:34.906Z,3.60
2023-04-22T22:00:01.683Z,3.15
2023-04-22T22:02:30.949Z,3.47
2023-04-22T22:04:57.930Z,2.88
2023-04-22T22:07:26.518Z,2.85
2023-04-22T22:09:59.401Z,3.47
2023-04-22T22:12:26.957Z,5.18
2023-04-22T22:14:53.730Z,4.28
2023-04-22T22:17:20.654Z,4.22
2023-04-22T22:19:48.778Z,2.65
2023-04-22T22:22:15.787Z,3.10
2023-04-22T22:24:43.045Z,3.28
2023-04-22T22:27:13.427Z,2.42
2023-04-22T22:29:42.851Z,2.30
2023-04-22T22:32:09.476Z,2.72
2023-04-22T22:34:36.138Z,4.50
2023-04-22T22:37:03.291Z,4.20
2023-04-22T22:39:30.122Z,3.22
2023-04-22T22:42:00.668Z,8.95
2023-04-22T22:44:27.405Z,2.90
2023-04-22T22:46:54.056Z,2.88
2023-04-22T22:49:20.832Z,3.13
2023-04-22T22:51:47.802Z,2.80
2023-04-22T22:54:14.456Z,2.65
2023-04-22T22:56:41.206Z,5.68
2023-04-22T22:59:07.850Z,4.07
2023-04-22T23:01:34.563Z,2.65
2023-04-22T23:04:01.680Z,2.58
2023-04-22T23:06:28.548Z,3.03
2023-04-22T23:09:10.055Z,2.30
2023-04-22T23:11:38.682Z,2.42
2023-04-22T23:14:05.365Z,2.55
2023-04-22T23:16:32.104Z,2.30
2023-04-22T23:18:59.765Z,2.75
2023-04-22T23:21:28.620Z,2.97
2023-04-22T23:23:56.685Z,3.35
2023-04-22T23:26:23.684Z,2.38
2023-04-22T23:28:50.515Z,1.88
2023-04-22T23:31:19.626Z,2.38
2023-04-22T23:33:53.420Z,2.70
2023-04-22T23:36:22.694Z,8.48
2023-04-22T23:38:49.331Z,2.65
2023-04-22T23:41:16.160Z,4.43
2023-04-22T23:43:42.834Z,2.85
2023-04-22T23:46:09.580Z,2.13
2023-04-22T23:48:36.336Z,2.30
2023-04-22T23:51:03.029Z,2.95
2023-04-22T23:53:29.654Z,1.95
2023-04-22T23:55:56.609Z,2.20
2023-04-22T23:58:23.388Z,3.13
